SHT22A EGLL-EGJB
Flight info
| Callsign | SHT22A |
|---|---|
| Flight time | 0h 36m |
| Altitude | 21000 |
| Route | GASGU2J GASGU N866 SAM/N0382F200 N63 LELNA LELNA1V |
| Aircraft | A319/M-SDE3FGIJ1KRWXY/LB1 |
Departure
| Time | 2026-04-23 09:05 |
|---|---|
| Airport | London Heathrow Airport (EGLL) |
Arrival
| Time | 2026-04-23 09:41 |
|---|---|
| Airport | Guernsey Airport (EGJB) |
| Time | Latitude | Longitude | Altitude | Speed | Heading |
|---|---|---|---|---|---|
| 2026-04-23 08:43 | 51.47381 | -0.48212 | 89 ft | 0 kts | 90° |
| 2026-04-23 08:53 | 51.47381 | -0.48229 | 90 ft | 4 kts | 90° |
| 2026-04-23 08:53 | 51.47381 | -0.48272 | 90 ft | 4 kts | 94° |
| 2026-04-23 08:53 | 51.47384 | -0.48315 | 90 ft | 4 kts | 101° |
| 2026-04-23 08:53 | 51.47392 | -0.48354 | 87 ft | 4 kts | 142° |
| 2026-04-23 08:54 | 51.47401 | -0.48362 | 90 ft | 1 kts | 180° |
| 2026-04-23 08:56 | 51.47384 | -0.48362 | 89 ft | 6 kts | 180° |
| 2026-04-23 08:57 | 51.47332 | -0.48362 | 87 ft | 9 kts | 180° |
| 2026-04-23 08:57 | 51.47261 | -0.48361 | 87 ft | 12 kts | 180° |
| 2026-04-23 08:57 | 51.47167 | -0.48360 | 87 ft | 15 kts | 180° |
| 2026-04-23 08:57 | 51.47055 | -0.48359 | 87 ft | 17 kts | 179° |
| 2026-04-23 08:58 | 51.46925 | -0.48357 | 87 ft | 20 kts | 179° |
| 2026-04-23 08:58 | 51.46779 | -0.48355 | 87 ft | 21 kts | 183° |
| 2026-04-23 08:58 | 51.46695 | -0.48471 | 88 ft | 16 kts | 183° |
| 2026-04-23 08:58 | 51.46623 | -0.48470 | 87 ft | 0 kts | 180° |
| 2026-04-23 09:02 | 51.46621 | -0.48470 | 87 ft | 1 kts | 180° |
| 2026-04-23 09:02 | 51.46597 | -0.48470 | 88 ft | 8 kts | 180° |
| 2026-04-23 09:02 | 51.46508 | -0.48470 | 89 ft | 13 kts | 180° |
| 2026-04-23 09:02 | 51.46478 | -0.48403 | 89 ft | 6 kts | 90° |
| 2026-04-23 09:03 | 51.46478 | -0.48400 | 89 ft | 0 kts | 90° |
| 2026-04-23 09:04 | 51.46478 | -0.48333 | 89 ft | 27 kts | 90° |
| 2026-04-23 09:04 | 51.46481 | -0.47689 | 86 ft | 88 kts | 89° |
| 2026-04-23 09:04 | 51.46490 | -0.46382 | 89 ft | 142 kts | 89° |
| 2026-04-23 09:04 | 51.46499 | -0.44692 | 491 ft | 156 kts | 88° |
| 2026-04-23 09:05 | 51.46514 | -0.42871 | 1050 ft | 169 kts | 88° |
| 2026-04-23 09:05 | 51.46281 | -0.40968 | 1694 ft | 180 kts | 113° |
| 2026-04-23 09:05 | 51.45512 | -0.39311 | 2343 ft | 191 kts | 128° |
| 2026-04-23 09:05 | 51.44640 | -0.37543 | 2797 ft | 215 kts | 124° |
| 2026-04-23 09:06 | 51.43718 | -0.35462 | 3398 ft | 237 kts | 126° |
| 2026-04-23 09:06 | 51.42435 | -0.33660 | 4328 ft | 248 kts | 148° |
| 2026-04-23 09:06 | 51.41363 | -0.32975 | 4978 ft | 255 kts | 164° |
| 2026-04-23 09:06 | 51.39719 | -0.32865 | 5837 ft | 266 kts | 186° |
| 2026-04-23 09:07 | 51.37983 | -0.33952 | 6799 ft | 278 kts | 211° |
| 2026-04-23 09:07 | 51.36498 | -0.36003 | 7724 ft | 283 kts | 220° |
| 2026-04-23 09:07 | 51.35036 | -0.38150 | 8660 ft | 287 kts | 220° |
| 2026-04-23 09:07 | 51.33555 | -0.40317 | 9586 ft | 290 kts | 219° |
| 2026-04-23 09:08 | 51.32056 | -0.42501 | 10482 ft | 294 kts | 219° |
| 2026-04-23 09:08 | 51.30710 | -0.45009 | 11261 ft | 302 kts | 236° |
| 2026-04-23 09:08 | 51.29860 | -0.48123 | 11989 ft | 314 kts | 252° |
| 2026-04-23 09:08 | 51.29231 | -0.51600 | 12257 ft | 337 kts | 253° |
| 2026-04-23 09:09 | 51.28570 | -0.55317 | 12800 ft | 349 kts | 253° |
| 2026-04-23 09:09 | 51.27896 | -0.59073 | 13540 ft | 354 kts | 253° |
| 2026-04-23 09:09 | 51.27183 | -0.62860 | 14280 ft | 359 kts | 252° |
| 2026-04-23 09:09 | 51.26437 | -0.66693 | 14967 ft | 363 kts | 252° |
| 2026-04-23 09:10 | 51.25665 | -0.70607 | 15661 ft | 366 kts | 252° |
| 2026-04-23 09:10 | 51.24110 | -0.78483 | 17054 ft | 373 kts | 252° |
| 2026-04-23 09:10 | 51.23325 | -0.82460 | 17730 ft | 377 kts | 252° |
| 2026-04-23 09:11 | 51.22535 | -0.86460 | 18391 ft | 380 kts | 252° |
| 2026-04-23 09:11 | 51.21739 | -0.90502 | 19030 ft | 384 kts | 252° |
| 2026-04-23 09:11 | 51.20703 | -0.94434 | 19620 ft | 387 kts | 242° |
| 2026-04-23 09:11 | 51.19244 | -0.97966 | 20176 ft | 391 kts | 232° |
| 2026-04-23 09:12 | 51.17385 | -1.01122 | 20382 ft | 392 kts | 224° |
| 2026-04-23 09:12 | 51.15439 | -1.04091 | 20431 ft | 380 kts | 224° |
| 2026-04-23 09:12 | 51.13545 | -1.06979 | 20434 ft | 375 kts | 224° |
| 2026-04-23 09:12 | 51.11673 | -1.09837 | 20432 ft | 373 kts | 224° |
| 2026-04-23 09:13 | 51.09797 | -1.12709 | 20428 ft | 373 kts | 224° |
| 2026-04-23 09:13 | 51.07928 | -1.15569 | 20430 ft | 373 kts | 224° |
| 2026-04-23 09:13 | 51.06057 | -1.18433 | 20432 ft | 373 kts | 224° |
| 2026-04-23 09:13 | 51.04190 | -1.21286 | 20434 ft | 373 kts | 224° |
| 2026-04-23 09:14 | 51.02321 | -1.24140 | 20435 ft | 373 kts | 224° |
| 2026-04-23 09:14 | 51.01059 | -1.26065 | 20437 ft | 373 kts | 224° |
| 2026-04-23 09:14 | 50.99201 | -1.28902 | 20436 ft | 373 kts | 224° |
| 2026-04-23 09:14 | 50.97353 | -1.31719 | 20439 ft | 373 kts | 224° |
| 2026-04-23 09:15 | 50.95307 | -1.34452 | 20440 ft | 373 kts | 214° |
| 2026-04-23 09:15 | 50.93063 | -1.36486 | 20440 ft | 372 kts | 206° |
| 2026-04-23 09:15 | 50.90750 | -1.38320 | 20442 ft | 372 kts | 206° |
| 2026-04-23 09:15 | 50.88446 | -1.40154 | 20442 ft | 372 kts | 206° |
| 2026-04-23 09:16 | 50.86128 | -1.42002 | 20441 ft | 372 kts | 206° |
| 2026-04-23 09:16 | 50.83819 | -1.43841 | 20439 ft | 372 kts | 206° |
| 2026-04-23 09:16 | 50.81473 | -1.45710 | 20436 ft | 372 kts | 206° |
| 2026-04-23 09:16 | 50.79165 | -1.47551 | 20431 ft | 372 kts | 206° |
| 2026-04-23 09:17 | 50.76856 | -1.49389 | 20428 ft | 372 kts | 206° |
| 2026-04-23 09:17 | 50.74541 | -1.51227 | 20411 ft | 372 kts | 206° |
| 2026-04-23 09:17 | 50.72232 | -1.53056 | 20413 ft | 372 kts | 206° |
| 2026-04-23 09:17 | 50.69921 | -1.54885 | 20412 ft | 372 kts | 206° |
| 2026-04-23 09:18 | 50.67605 | -1.56719 | 20409 ft | 372 kts | 206° |
| 2026-04-23 09:18 | 50.65292 | -1.58548 | 20406 ft | 372 kts | 206° |
| 2026-04-23 09:18 | 50.62976 | -1.60377 | 20406 ft | 372 kts | 206° |
| 2026-04-23 09:18 | 50.60659 | -1.62202 | 20403 ft | 372 kts | 206° |
| 2026-04-23 09:19 | 50.58337 | -1.64029 | 20400 ft | 373 kts | 205° |
| 2026-04-23 09:19 | 50.56021 | -1.65849 | 20398 ft | 373 kts | 205° |
| 2026-04-23 09:19 | 50.53697 | -1.67673 | 20396 ft | 373 kts | 205° |
| 2026-04-23 09:19 | 50.51377 | -1.69495 | 20395 ft | 373 kts | 205° |
| 2026-04-23 09:20 | 50.49052 | -1.71315 | 20388 ft | 373 kts | 205° |
| 2026-04-23 09:20 | 50.46728 | -1.73129 | 20388 ft | 373 kts | 205° |
| 2026-04-23 09:20 | 50.44403 | -1.74946 | 20387 ft | 373 kts | 205° |
| 2026-04-23 09:20 | 50.42076 | -1.76761 | 20384 ft | 373 kts | 205° |
| 2026-04-23 09:21 | 50.39753 | -1.78569 | 20379 ft | 373 kts | 205° |
| 2026-04-23 09:21 | 50.37425 | -1.80382 | 20382 ft | 373 kts | 205° |
| 2026-04-23 09:21 | 50.35102 | -1.82195 | 20386 ft | 373 kts | 205° |
| 2026-04-23 09:21 | 50.32778 | -1.84012 | 20382 ft | 373 kts | 205° |
| 2026-04-23 09:22 | 50.30450 | -1.85827 | 20380 ft | 373 kts | 205° |
| 2026-04-23 09:22 | 50.28125 | -1.87630 | 20383 ft | 373 kts | 205° |
| 2026-04-23 09:22 | 50.25797 | -1.89433 | 20381 ft | 373 kts | 205° |
| 2026-04-23 09:22 | 50.23443 | -1.91259 | 20380 ft | 373 kts | 205° |
| 2026-04-23 09:23 | 50.21118 | -1.93062 | 20382 ft | 373 kts | 205° |
| 2026-04-23 09:23 | 50.18793 | -1.94862 | 20384 ft | 373 kts | 205° |
| 2026-04-23 09:23 | 50.16474 | -1.96653 | 20379 ft | 373 kts | 205° |
| 2026-04-23 09:23 | 50.14149 | -1.98447 | 20376 ft | 373 kts | 205° |
| 2026-04-23 09:24 | 50.11825 | -2.00235 | 20373 ft | 373 kts | 205° |
| 2026-04-23 09:24 | 50.09496 | -2.02021 | 20376 ft | 373 kts | 205° |
| 2026-04-23 09:24 | 50.07126 | -2.03838 | 20364 ft | 386 kts | 205° |
| 2026-04-23 09:24 | 50.04700 | -2.05698 | 20357 ft | 390 kts | 205° |
| 2026-04-23 09:25 | 50.02262 | -2.07567 | 20356 ft | 391 kts | 205° |
| 2026-04-23 09:25 | 49.99867 | -2.09428 | 20282 ft | 379 kts | 208° |
| 2026-04-23 09:25 | 49.97744 | -2.11740 | 20149 ft | 367 kts | 221° |
| 2026-04-23 09:25 | 49.95985 | -2.14610 | 19965 ft | 357 kts | 229° |
| 2026-04-23 09:26 | 49.94354 | -2.17481 | 19641 ft | 353 kts | 228° |
| 2026-04-23 09:26 | 49.92734 | -2.20323 | 19251 ft | 350 kts | 228° |
| 2026-04-23 09:26 | 49.91119 | -2.23139 | 18882 ft | 348 kts | 227° |
| 2026-04-23 09:26 | 49.89512 | -2.25935 | 18488 ft | 346 kts | 227° |
| 2026-04-23 09:27 | 49.87913 | -2.28716 | 18059 ft | 344 kts | 227° |
| 2026-04-23 09:27 | 49.86328 | -2.31474 | 17622 ft | 342 kts | 226° |
| 2026-04-23 09:27 | 49.84747 | -2.34224 | 17212 ft | 340 kts | 226° |
| 2026-04-23 09:27 | 49.83160 | -2.36984 | 16805 ft | 337 kts | 226° |
| 2026-04-23 09:28 | 49.81609 | -2.39671 | 16297 ft | 334 kts | 225° |
| 2026-04-23 09:28 | 49.80079 | -2.42321 | 15809 ft | 331 kts | 225° |
| 2026-04-23 09:28 | 49.78558 | -2.44983 | 15336 ft | 328 kts | 226° |
| 2026-04-23 09:28 | 49.77060 | -2.47627 | 14876 ft | 325 kts | 225° |
| 2026-04-23 09:29 | 49.75581 | -2.50256 | 14416 ft | 323 kts | 225° |
| 2026-04-23 09:29 | 49.74123 | -2.52869 | 13939 ft | 320 kts | 225° |
| 2026-04-23 09:29 | 49.72678 | -2.55473 | 13438 ft | 317 kts | 225° |
| 2026-04-23 09:29 | 49.71248 | -2.58056 | 12950 ft | 315 kts | 225° |
| 2026-04-23 09:30 | 49.69835 | -2.60620 | 12468 ft | 312 kts | 225° |
| 2026-04-23 09:30 | 49.68439 | -2.63169 | 11990 ft | 310 kts | 225° |
| 2026-04-23 09:30 | 49.67055 | -2.65712 | 11515 ft | 308 kts | 225° |
| 2026-04-23 09:30 | 49.65671 | -2.68267 | 11048 ft | 305 kts | 225° |
| 2026-04-23 09:31 | 49.64308 | -2.70798 | 10456 ft | 308 kts | 225° |
| 2026-04-23 09:31 | 49.62949 | -2.73341 | 9819 ft | 306 kts | 225° |
| 2026-04-23 09:31 | 49.61607 | -2.75869 | 9168 ft | 304 kts | 225° |
| 2026-04-23 09:31 | 49.60277 | -2.78384 | 8537 ft | 302 kts | 225° |
| 2026-04-23 09:32 | 49.58956 | -2.80885 | 7909 ft | 300 kts | 225° |
| 2026-04-23 09:32 | 49.57646 | -2.83370 | 7298 ft | 298 kts | 225° |
| 2026-04-23 09:32 | 49.56438 | -2.85957 | 6690 ft | 301 kts | 239° |
| 2026-04-23 09:32 | 49.55740 | -2.89014 | 6058 ft | 304 kts | 250° |
| 2026-04-23 09:33 | 49.55174 | -2.92142 | 5429 ft | 303 kts | 250° |
| 2026-04-23 09:33 | 49.54435 | -2.95119 | 4795 ft | 292 kts | 231° |
| 2026-04-23 09:33 | 49.53049 | -2.97242 | 4165 ft | 275 kts | 203° |
| 2026-04-23 09:33 | 49.51306 | -2.98125 | 3660 ft | 257 kts | 183° |
| 2026-04-23 09:34 | 49.49566 | -2.98503 | 3213 ft | 250 kts | 181° |
| 2026-04-23 09:34 | 49.47889 | -2.98811 | 3006 ft | 231 kts | 176° |
| 2026-04-23 09:34 | 49.46402 | -2.98603 | 3014 ft | 201 kts | 160° |
| 2026-04-23 09:34 | 49.45170 | -2.97873 | 3008 ft | 180 kts | 146° |
| 2026-04-23 09:35 | 49.44199 | -2.96812 | 3010 ft | 166 kts | 134° |
| 2026-04-23 09:35 | 49.43457 | -2.95504 | 3037 ft | 161 kts | 123° |
| 2026-04-23 09:35 | 49.42937 | -2.94001 | 3018 ft | 159 kts | 112° |
| 2026-04-23 09:35 | 49.42650 | -2.92366 | 3015 ft | 159 kts | 101° |
| 2026-04-23 09:36 | 49.42605 | -2.90656 | 3011 ft | 161 kts | 91° |
| 2026-04-23 09:36 | 49.42659 | -2.88914 | 3013 ft | 161 kts | 91° |
| 2026-04-23 09:36 | 49.42711 | -2.87201 | 3014 ft | 161 kts | 92° |
| 2026-04-23 09:36 | 49.42763 | -2.85483 | 3000 ft | 161 kts | 91° |
| 2026-04-23 09:37 | 49.42815 | -2.83770 | 3013 ft | 161 kts | 91° |
| 2026-04-23 09:37 | 49.42866 | -2.82048 | 2918 ft | 161 kts | 91° |
| 2026-04-23 09:37 | 49.42917 | -2.80345 | 2744 ft | 156 kts | 91° |
| 2026-04-23 09:37 | 49.42965 | -2.78731 | 2556 ft | 147 kts | 91° |
| 2026-04-23 09:38 | 49.43010 | -2.77198 | 2368 ft | 141 kts | 91° |
| 2026-04-23 09:38 | 49.43054 | -2.75687 | 2178 ft | 139 kts | 91° |
| 2026-04-23 09:38 | 49.43097 | -2.74213 | 1992 ft | 138 kts | 91° |
| 2026-04-23 09:38 | 49.43139 | -2.72747 | 1806 ft | 137 kts | 91° |
| 2026-04-23 09:39 | 49.43181 | -2.71307 | 1618 ft | 129 kts | 91° |
| 2026-04-23 09:39 | 49.43220 | -2.69981 | 1451 ft | 117 kts | 90° |
| 2026-04-23 09:39 | 49.43255 | -2.68754 | 1297 ft | 113 kts | 90° |
| 2026-04-23 09:39 | 49.43289 | -2.67556 | 1141 ft | 112 kts | 89° |
| 2026-04-23 09:40 | 49.43312 | -2.66745 | 1040 ft | 114 kts | 88° |
| 2026-04-23 09:40 | 49.43350 | -2.65525 | 861 ft | 113 kts | 89° |
| 2026-04-23 09:40 | 49.43379 | -2.64300 | 671 ft | 117 kts | 89° |
| 2026-04-23 09:40 | 49.43420 | -2.63027 | 569 ft | 121 kts | 87° |
| 2026-04-23 09:41 | 49.43459 | -2.61712 | 416 ft | 122 kts | 87° |
| 2026-04-23 09:41 | 49.43489 | -2.60497 | 343 ft | 100 kts | 87° |
| 2026-04-23 09:41 | 49.43509 | -2.59845 | 343 ft | 32 kts | 87° |
| 2026-04-23 09:41 | 49.43521 | -2.59474 | 346 ft | 37 kts | 88° |
| 2026-04-23 09:42 | 49.43524 | -2.59232 | 352 ft | 13 kts | 101° |
| 2026-04-23 09:42 | 49.43459 | -2.59199 | 344 ft | 9 kts | 181° |
| 2026-04-23 09:42 | 49.43417 | -2.59198 | 338 ft | 8 kts | 179° |
| 2026-04-23 09:42 | 49.43372 | -2.59244 | 340 ft | 10 kts | 258° |
| 2026-04-23 09:43 | 49.43369 | -2.59363 | 340 ft | 13 kts | 267° |
| 2026-04-23 09:43 | 49.43364 | -2.59509 | 340 ft | 15 kts | 267° |
| 2026-04-23 09:43 | 49.43358 | -2.59670 | 340 ft | 10 kts | 267° |
| 2026-04-23 09:43 | 49.43313 | -2.59685 | 340 ft | 9 kts | 172° |
| 2026-04-23 09:44 | 49.43268 | -2.59683 | 340 ft | 2 kts | 178° |
| 2026-04-23 09:44 | 49.43262 | -2.59682 | 340 ft | 0 kts | 177° |